sensor_id;sensor_type;location;lat;lon;timestamp;temperature;humidity
25622;DHT22;13487;39.360;22.962;2022-12-20T00:01:24;10.30;1.00
25622;DHT22;13487;39.360;22.962;2022-12-20T00:03:52;10.40;1.00
25622;DHT22;13487;39.360;22.962;2022-12-20T00:06:19;10.40;1.00
25622;DHT22;13487;39.360;22.962;2022-12-20T00:08:45;10.30;1.00
25622;DHT22;13487;39.360;22.962;2022-12-20T00:11:11;10.10;1.00
25622;DHT22;13487;39.360;22.962;2022-12-20T00:13:37;10.10;1.00
25622;DHT22;13487;39.360;22.962;2022-12-20T00:16:21;10.20;1.00
25622;DHT22;13487;39.360;22.962;2022-12-20T00:18:55;10.10;1.00
25622;DHT22;13487;39.360;22.962;2022-12-20T00:21:21;10.10;1.00
25622;DHT22;13487;39.360;22.962;2022-12-20T00:23:48;10.20;1.00
25622;DHT22;13487;39.360;22.962;2022-12-20T00:26:16;10.20;1.00
25622;DHT22;13487;39.360;22.962;2022-12-20T00:28:42;10.10;1.00
25622;DHT22;13487;39.360;22.962;2022-12-20T00:31:11;10.00;1.00
25622;DHT22;13487;39.360;22.962;2022-12-20T00:33:38;10.00;1.00
25622;DHT22;13487;39.360;22.962;2022-12-20T00:36:05;10.10;1.00
25622;DHT22;13487;39.360;22.962;2022-12-20T00:38:31;10.10;1.00
25622;DHT22;13487;39.360;22.962;2022-12-20T00:41:06;10.20;1.00
25622;DHT22;13487;39.360;22.962;2022-12-20T00:43:33;10.20;1.00
25622;DHT22;13487;39.360;22.962;2022-12-20T00:46:00;10.10;1.00
25622;DHT22;13487;39.360;22.962;2022-12-20T00:48:26;10.10;1.00
25622;DHT22;13487;39.360;22.962;2022-12-20T00:51:01;10.10;1.00
25622;DHT22;13487;39.360;22.962;2022-12-20T00:53:27;10.20;1.00
25622;DHT22;13487;39.360;22.962;2022-12-20T00:55:53;10.30;1.00
25622;DHT22;13487;39.360;22.962;2022-12-20T00:58:19;10.20;99.90
25622;DHT22;13487;39.360;22.962;2022-12-20T01:00:44;10.20;99.90
25622;DHT22;13487;39.360;22.962;2022-12-20T01:03:10;10.20;99.90
25622;DHT22;13487;39.360;22.962;2022-12-20T01:05:36;10.20;99.90
25622;DHT22;13487;39.360;22.962;2022-12-20T01:08:02;10.20;99.90
25622;DHT22;13487;39.360;22.962;2022-12-20T01:10:28;10.20;99.90
25622;DHT22;13487;39.360;22.962;2022-12-20T01:12:54;10.20;99.90
25622;DHT22;13487;39.360;22.962;2022-12-20T01:15:20;10.00;99.90
25622;DHT22;13487;39.360;22.962;2022-12-20T01:17:46;10.00;99.90
25622;DHT22;13487;39.360;22.962;2022-12-20T01:20:12;10.00;99.90
25622;DHT22;13487;39.360;22.962;2022-12-20T01:22:38;10.10;99.90
25622;DHT22;13487;39.360;22.962;2022-12-20T01:25:04;10.00;99.90
25622;DHT22;13487;39.360;22.962;2022-12-20T01:27:30;9.90;99.90
25622;DHT22;13487;39.360;22.962;2022-12-20T01:29:56;10.00;99.90
25622;DHT22;13487;39.360;22.962;2022-12-20T01:32:22;10.00;99.90
25622;DHT22;13487;39.360;22.962;2022-12-20T01:34:48;10.10;99.90
25622;DHT22;13487;39.360;22.962;2022-12-20T01:37:13;10.10;99.90
25622;DHT22;13487;39.360;22.962;2022-12-20T01:39:39;10.00;99.90
25622;DHT22;13487;39.360;22.962;2022-12-20T01:42:05;9.90;99.90
25622;DHT22;13487;39.360;22.962;2022-12-20T01:46:56;9.80;99.90
25622;DHT22;13487;39.360;22.962;2022-12-20T01:49:30;9.90;99.90
25622;DHT22;13487;39.360;22.962;2022-12-20T01:52:07;10.00;99.90
25622;DHT22;13487;39.360;22.962;2022-12-20T01:54:45;9.80;99.90
25622;DHT22;13487;39.360;22.962;2022-12-20T01:57:17;9.70;99.90
25622;DHT22;13487;39.360;22.962;2022-12-20T01:59:45;9.70;99.90
25622;DHT22;13487;39.360;22.962;2022-12-20T02:02:12;9.80;99.90
25622;DHT22;13487;39.360;22.962;2022-12-20T02:04:38;9.60;99.90
25622;DHT22;13487;39.360;22.962;2022-12-20T02:07:05;9.60;99.90
25622;DHT22;13487;39.360;22.962;2022-12-20T02:09:34;9.60;99.90
25622;DHT22;13487;39.360;22.962;2022-12-20T02:20:10;9.70;99.90
25622;DHT22;13487;39.360;22.962;2022-12-20T02:30:41;9.50;99.90
25622;DHT22;13487;39.360;22.962;2022-12-20T02:33:09;9.50;99.90
25622;DHT22;13487;39.360;22.962;2022-12-20T02:35:38;9.50;99.90
25622;DHT22;13487;39.360;22.962;2022-12-20T02:41:34;9.60;99.90
25622;DHT22;13487;39.360;22.962;2022-12-20T02:43:42;9.70;99.90
25622;DHT22;13487;39.360;22.962;2022-12-20T02:46:27;9.70;99.90
25622;DHT22;13487;39.360;22.962;2022-12-20T02:48:57;9.70;97.10
25622;DHT22;13487;39.360;22.962;2022-12-20T02:51:26;9.50;81.60
25622;DHT22;13487;39.360;22.962;2022-12-20T02:53:53;9.40;99.90
25622;DHT22;13487;39.360;22.962;2022-12-20T02:56:32;9.40;87.20
25622;DHT22;13487;39.360;22.962;2022-12-20T02:59:10;9.40;92.50
25622;DHT22;13487;39.360;22.962;2022-12-20T03:01:45;9.40;99.90
25622;DHT22;13487;39.360;22.962;2022-12-20T03:04:12;9.40;99.90
25622;DHT22;13487;39.360;22.962;2022-12-20T03:06:39;9.50;97.50
25622;DHT22;13487;39.360;22.962;2022-12-20T03:09:04;9.50;50.10
25622;DHT22;13487;39.360;22.962;2022-12-20T03:11:30;9.50;38.20
25622;DHT22;13487;39.360;22.962;2022-12-20T03:13:56;9.30;3.20
25622;DHT22;13487;39.360;22.962;2022-12-20T03:16:22;9.30;3.40
25622;DHT22;13487;39.360;22.962;2022-12-20T03:18:47;9.40;7.10
25622;DHT22;13487;39.360;22.962;2022-12-20T03:21:13;9.30;1.00
25622;DHT22;13487;39.360;22.962;2022-12-20T03:23:39;9.30;1.00
25622;DHT22;13487;39.360;22.962;2022-12-20T03:26:05;9.30;1.00
25622;DHT22;13487;39.360;22.962;2022-12-20T03:28:30;9.40;1.00
25622;DHT22;13487;39.360;22.962;2022-12-20T03:30:56;9.30;1.00
25622;DHT22;13487;39.360;22.962;2022-12-20T03:33:22;9.30;1.00
25622;DHT22;13487;39.360;22.962;2022-12-20T03:35:48;9.20;1.00
25622;DHT22;13487;39.360;22.962;2022-12-20T03:38:13;9.20;1.00
25622;DHT22;13487;39.360;22.962;2022-12-20T03:40:39;9.20;1.00
25622;DHT22;13487;39.360;22.962;2022-12-20T03:43:05;9.20;1.00
25622;DHT22;13487;39.360;22.962;2022-12-20T03:45:31;9.20;1.00
25622;DHT22;13487;39.360;22.962;2022-12-20T03:47:56;9.10;1.00
25622;DHT22;13487;39.360;22.962;2022-12-20T03:50:22;9.10;1.00
25622;DHT22;13487;39.360;22.962;2022-12-20T03:52:48;9.10;1.00
25622;DHT22;13487;39.360;22.962;2022-12-20T03:55:14;9.00;1.00
25622;DHT22;13487;39.360;22.962;2022-12-20T03:57:40;9.00;1.00
25622;DHT22;13487;39.360;22.962;2022-12-20T04:00:07;9.00;1.00
25622;DHT22;13487;39.360;22.962;2022-12-20T04:02:33;9.00;1.00
25622;DHT22;13487;39.360;22.962;2022-12-20T04:04:58;9.00;1.00
25622;DHT22;13487;39.360;22.962;2022-12-20T04:07:24;9.00;1.00
25622;DHT22;13487;39.360;22.962;2022-12-20T04:09:50;9.00;1.00
25622;DHT22;13487;39.360;22.962;2022-12-20T04:12:15;9.10;1.00
25622;DHT22;13487;39.360;22.962;2022-12-20T04:14:41;9.10;1.00
25622;DHT22;13487;39.360;22.962;2022-12-20T04:17:07;9.10;1.00
25622;DHT22;13487;39.360;22.962;2022-12-20T04:19:33;9.10;1.00
25622;DHT22;13487;39.360;22.962;2022-12-20T04:21:59;9.10;1.00
25622;DHT22;13487;39.360;22.962;2022-12-20T04:24:24;9.10;1.00
25622;DHT22;13487;39.360;22.962;2022-12-20T04:26:50;9.20;1.00
25622;DHT22;13487;39.360;22.962;2022-12-20T04:29:16;9.20;1.00
25622;DHT22;13487;39.360;22.962;2022-12-20T04:31:41;9.20;1.00
25622;DHT22;13487;39.360;22.962;2022-12-20T04:34:07;9.30;1.00
25622;DHT22;13487;39.360;22.962;2022-12-20T04:36:33;9.30;1.00
25622;DHT22;13487;39.360;22.962;2022-12-20T04:38:59;9.20;1.00
25622;DHT22;13487;39.360;22.962;2022-12-20T04:41:25;9.30;1.00
25622;DHT22;13487;39.360;22.962;2022-12-20T04:43:54;9.30;1.00
25622;DHT22;13487;39.360;22.962;2022-12-20T04:46:23;9.20;1.00
25622;DHT22;13487;39.360;22.962;2022-12-20T04:48:49;9.20;1.00
25622;DHT22;13487;39.360;22.962;2022-12-20T04:51:16;9.20;1.00
25622;DHT22;13487;39.360;22.962;2022-12-20T04:53:42;9.10;1.00
25622;DHT22;13487;39.360;22.962;2022-12-20T04:56:20;9.20;1.00
25622;DHT22;13487;39.360;22.962;2022-12-20T04:58:48;9.10;1.00
25622;DHT22;13487;39.360;22.962;2022-12-20T05:01:14;9.20;1.00
25622;DHT22;13487;39.360;22.962;2022-12-20T05:03:40;9.10;1.00
25622;DHT22;13487;39.360;22.962;2022-12-20T05:06:07;9.10;1.00
25622;DHT22;13487;39.360;22.962;2022-12-20T05:08:33;9.00;1.00
25622;DHT22;13487;39.360;22.962;2022-12-20T05:11:00;8.90;1.00
25622;DHT22;13487;39.360;22.962;2022-12-20T05:13:25;8.80;1.00
25622;DHT22;13487;39.360;22.962;2022-12-20T05:15:52;8.90;1.00
25622;DHT22;13487;39.360;22.962;2022-12-20T05:18:18;8.90;1.00
25622;DHT22;13487;39.360;22.962;2022-12-20T05:20:44;8.90;1.00
25622;DHT22;13487;39.360;22.962;2022-12-20T05:23:11;8.90;1.00
25622;DHT22;13487;39.360;22.962;2022-12-20T05:25:56;8.90;1.00
25622;DHT22;13487;39.360;22.962;2022-12-20T05:28:28;8.80;1.00
25622;DHT22;13487;39.360;22.962;2022-12-20T05:30:53;8.80;1.00
25622;DHT22;13487;39.360;22.962;2022-12-20T05:33:19;8.80;1.00
25622;DHT22;13487;39.360;22.962;2022-12-20T05:35:45;8.90;1.00
25622;DHT22;13487;39.360;22.962;2022-12-20T05:38:11;8.80;1.00
25622;DHT22;13487;39.360;22.962;2022-12-20T05:40:38;8.80;1.00
25622;DHT22;13487;39.360;22.962;2022-12-20T05:43:04;8.90;1.00
25622;DHT22;13487;39.360;22.962;2022-12-20T05:45:31;8.80;1.00
25622;DHT22;13487;39.360;22.962;2022-12-20T05:47:56;8.80;1.00
25622;DHT22;13487;39.360;22.962;2022-12-20T05:50:22;8.90;1.00
25622;DHT22;13487;39.360;22.962;2022-12-20T05:52:48;8.90;1.00
25622;DHT22;13487;39.360;22.962;2022-12-20T05:55:14;8.90;1.00
25622;DHT22;13487;39.360;22.962;2022-12-20T05:57:40;8.90;1.00
25622;DHT22;13487;39.360;22.962;2022-12-20T06:00:06;9.00;1.00
25622;DHT22;13487;39.360;22.962;2022-12-20T06:02:32;8.90;1.00
25622;DHT22;13487;39.360;22.962;2022-12-20T06:04:58;8.90;1.00
25622;DHT22;13487;39.360;22.962;2022-12-20T06:07:25;9.00;1.00
25622;DHT22;13487;39.360;22.962;2022-12-20T06:09:53;9.00;1.00
25622;DHT22;13487;39.360;22.962;2022-12-20T06:12:19;9.00;1.00
25622;DHT22;13487;39.360;22.962;2022-12-20T06:14:45;9.10;1.00
25622;DHT22;13487;39.360;22.962;2022-12-20T06:17:11;9.10;1.00
25622;DHT22;13487;39.360;22.962;2022-12-20T06:19:36;9.20;1.00
25622;DHT22;13487;39.360;22.962;2022-12-20T06:22:04;9.30;1.00
25622;DHT22;13487;39.360;22.962;2022-12-20T06:24:30;9.30;1.00
25622;DHT22;13487;39.360;22.962;2022-12-20T06:26:55;9.30;1.00
25622;DHT22;13487;39.360;22.962;2022-12-20T06:29:21;9.40;1.00
25622;DHT22;13487;39.360;22.962;2022-12-20T06:31:49;9.30;1.00
25622;DHT22;13487;39.360;22.962;2022-12-20T06:34:14;9.30;1.00
25622;DHT22;13487;39.360;22.962;2022-12-20T06:36:40;9.40;1.00
25622;DHT22;13487;39.360;22.962;2022-12-20T06:39:06;9.40;1.00
25622;DHT22;13487;39.360;22.962;2022-12-20T06:41:34;9.40;1.00
25622;DHT22;13487;39.360;22.962;2022-12-20T06:44:00;9.50;1.00
25622;DHT22;13487;39.360;22.962;2022-12-20T06:46:26;9.40;1.00
25622;DHT22;13487;39.360;22.962;2022-12-20T06:48:52;9.50;1.00
25622;DHT22;13487;39.360;22.962;2022-12-20T06:51:20;9.50;1.00
25622;DHT22;13487;39.360;22.962;2022-12-20T06:53:46;9.60;1.00
25622;DHT22;13487;39.360;22.962;2022-12-20T06:56:11;9.50;1.00
25622;DHT22;13487;39.360;22.962;2022-12-20T06:58:37;9.30;1.00
25622;DHT22;13487;39.360;22.962;2022-12-20T07:01:03;9.40;1.00
25622;DHT22;13487;39.360;22.962;2022-12-20T07:03:29;9.30;1.00
25622;DHT22;13487;39.360;22.962;2022-12-20T07:05:55;9.40;1.00
25622;DHT22;13487;39.360;22.962;2022-12-20T07:08:21;9.40;1.00
25622;DHT22;13487;39.360;22.962;2022-12-20T07:10:47;9.30;1.00
25622;DHT22;13487;39.360;22.962;2022-12-20T07:13:13;9.30;1.00
25622;DHT22;13487;39.360;22.962;2022-12-20T07:15:39;9.30;1.00
25622;DHT22;13487;39.360;22.962;2022-12-20T07:18:04;9.40;1.00
25622;DHT22;13487;39.360;22.962;2022-12-20T07:20:31;9.40;1.00
25622;DHT22;13487;39.360;22.962;2022-12-20T07:22:57;9.30;1.00
25622;DHT22;13487;39.360;22.962;2022-12-20T07:25:23;9.40;1.00
25622;DHT22;13487;39.360;22.962;2022-12-20T07:27:50;9.60;1.00
25622;DHT22;13487;39.360;22.962;2022-12-20T07:30:17;9.60;1.00
25622;DHT22;13487;39.360;22.962;2022-12-20T07:32:42;9.60;1.00
25622;DHT22;13487;39.360;22.962;2022-12-20T07:35:10;9.50;1.00
25622;DHT22;13487;39.360;22.962;2022-12-20T07:37:36;9.50;1.00
25622;DHT22;13487;39.360;22.962;2022-12-20T07:40:03;9.50;1.00
25622;DHT22;13487;39.360;22.962;2022-12-20T07:42:29;9.40;1.00
25622;DHT22;13487;39.360;22.962;2022-12-20T07:44:55;9.60;1.00
25622;DHT22;13487;39.360;22.962;2022-12-20T07:47:21;9.60;1.00
25622;DHT22;13487;39.360;22.962;2022-12-20T07:49:46;9.60;1.00
25622;DHT22;13487;39.360;22.962;2022-12-20T07:52:16;9.70;1.00
25622;DHT22;13487;39.360;22.962;2022-12-20T07:54:47;9.60;1.00
25622;DHT22;13487;39.360;22.962;2022-12-20T07:57:19;9.50;1.00
25622;DHT22;13487;39.360;22.962;2022-12-20T07:59:52;9.50;1.00
25622;DHT22;13487;39.360;22.962;2022-12-20T08:02:41;9.50;1.00
25622;DHT22;13487;39.360;22.962;2022-12-20T08:05:08;9.60;1.00
25622;DHT22;13487;39.360;22.962;2022-12-20T08:07:35;9.70;1.00
25622;DHT22;13487;39.360;22.962;2022-12-20T08:10:04;9.70;1.00
25622;DHT22;13487;39.360;22.962;2022-12-20T08:12:31;9.90;1.00
25622;DHT22;13487;39.360;22.962;2022-12-20T08:14:57;9.80;1.00
25622;DHT22;13487;39.360;22.962;2022-12-20T08:17:24;9.80;1.00
25622;DHT22;13487;39.360;22.962;2022-12-20T08:19:49;9.80;1.00
25622;DHT22;13487;39.360;22.962;2022-12-20T08:22:17;9.90;1.00
25622;DHT22;13487;39.360;22.962;2022-12-20T08:24:44;10.00;1.00
25622;DHT22;13487;39.360;22.962;2022-12-20T08:27:09;9.90;1.00
25622;DHT22;13487;39.360;22.962;2022-12-20T08:29:35;10.10;1.00
25622;DHT22;13487;39.360;22.962;2022-12-20T08:32:01;10.20;1.00
25622;DHT22;13487;39.360;22.962;2022-12-20T08:34:27;10.40;1.00
25622;DHT22;13487;39.360;22.962;2022-12-20T08:36:53;10.70;1.00
25622;DHT22;13487;39.360;22.962;2022-12-20T08:39:18;10.40;1.00
25622;DHT22;13487;39.360;22.962;2022-12-20T08:41:44;10.30;1.00
25622;DHT22;13487;39.360;22.962;2022-12-20T08:44:10;10.30;1.00
25622;DHT22;13487;39.360;22.962;2022-12-20T08:46:36;10.30;1.00
25622;DHT22;13487;39.360;22.962;2022-12-20T08:49:03;10.30;1.00
25622;DHT22;13487;39.360;22.962;2022-12-20T08:51:29;10.30;1.00
25622;DHT22;13487;39.360;22.962;2022-12-20T08:53:55;10.20;1.00
25622;DHT22;13487;39.360;22.962;2022-12-20T08:56:21;10.20;1.00
25622;DHT22;13487;39.360;22.962;2022-12-20T08:58:47;10.40;1.00
25622;DHT22;13487;39.360;22.962;2022-12-20T09:01:17;10.40;1.00
25622;DHT22;13487;39.360;22.962;2022-12-20T09:03:44;10.50;1.00
25622;DHT22;13487;39.360;22.962;2022-12-20T09:06:16;10.60;1.00
25622;DHT22;13487;39.360;22.962;2022-12-20T09:08:42;10.30;1.00
25622;DHT22;13487;39.360;22.962;2022-12-20T09:11:13;10.20;1.00
25622;DHT22;13487;39.360;22.962;2022-12-20T09:13:41;10.20;1.00
25622;DHT22;13487;39.360;22.962;2022-12-20T09:16:08;10.20;1.00
25622;DHT22;13487;39.360;22.962;2022-12-20T09:18:34;10.40;1.00
25622;DHT22;13487;39.360;22.962;2022-12-20T09:21:04;10.70;1.00
25622;DHT22;13487;39.360;22.962;2022-12-20T09:23:31;10.90;1.00
25622;DHT22;13487;39.360;22.962;2022-12-20T09:26:04;10.80;1.00
25622;DHT22;13487;39.360;22.962;2022-12-20T09:28:31;10.80;1.00
25622;DHT22;13487;39.360;22.962;2022-12-20T09:31:00;10.90;1.00
25622;DHT22;13487;39.360;22.962;2022-12-20T09:33:27;11.20;1.00
25622;DHT22;13487;39.360;22.962;2022-12-20T09:35:53;11.30;1.00
25622;DHT22;13487;39.360;22.962;2022-12-20T09:38:19;11.30;1.00
25622;DHT22;13487;39.360;22.962;2022-12-20T09:40:50;11.40;1.00
25622;DHT22;13487;39.360;22.962;2022-12-20T09:43:16;11.50;1.00
25622;DHT22;13487;39.360;22.962;2022-12-20T09:45:44;11.40;1.00
25622;DHT22;13487;39.360;22.962;2022-12-20T09:48:38;11.40;1.00
25622;DHT22;13487;39.360;22.962;2022-12-20T09:51:19;11.40;99.90
25622;DHT22;13487;39.360;22.962;2022-12-20T09:56:26;12.00;1.00
25622;DHT22;13487;39.360;22.962;2022-12-20T09:59:13;12.10;99.90
25622;DHT22;13487;39.360;22.962;2022-12-20T10:01:43;12.20;99.90
25622;DHT22;13487;39.360;22.962;2022-12-20T10:04:24;12.30;99.90
25622;DHT22;13487;39.360;22.962;2022-12-20T10:12:52;11.50;99.90
25622;DHT22;13487;39.360;22.962;2022-12-20T10:17:44;11.50;99.90
25622;DHT22;13487;39.360;22.962;2022-12-20T10:20:23;11.50;99.90
25622;DHT22;13487;39.360;22.962;2022-12-20T10:25:24;11.60;99.90
25622;DHT22;13487;39.360;22.962;2022-12-20T10:27:55;11.20;99.90
25622;DHT22;13487;39.360;22.962;2022-12-20T10:30:24;11.20;99.90
25622;DHT22;13487;39.360;22.962;2022-12-20T10:32:52;11.10;99.90
25622;DHT22;13487;39.360;22.962;2022-12-20T10:35:38;11.00;99.90
25622;DHT22;13487;39.360;22.962;2022-12-20T10:38:10;11.20;99.90
25622;DHT22;13487;39.360;22.962;2022-12-20T10:43:21;10.90;99.90
25622;DHT22;13487;39.360;22.962;2022-12-20T10:46:03;10.80;99.90
25622;DHT22;13487;39.360;22.962;2022-12-20T10:48:31;11.10;99.90
25622;DHT22;13487;39.360;22.962;2022-12-20T10:51:01;11.40;99.90
25622;DHT22;13487;39.360;22.962;2022-12-20T10:53:29;11.40;99.90
25622;DHT22;13487;39.360;22.962;2022-12-20T10:56:16;11.50;99.90
25622;DHT22;13487;39.360;22.962;2022-12-20T10:58:54;11.40;99.90
25622;DHT22;13487;39.360;22.962;2022-12-20T11:01:21;11.40;99.90
25622;DHT22;13487;39.360;22.962;2022-12-20T11:06:29;11.40;99.90
25622;DHT22;13487;39.360;22.962;2022-12-20T11:09:23;11.40;99.90
25622;DHT22;13487;39.360;22.962;2022-12-20T11:14:22;11.40;99.90
25622;DHT22;13487;39.360;22.962;2022-12-20T11:16:50;11.60;99.90
25622;DHT22;13487;39.360;22.962;2022-12-20T11:19:29;11.50;99.90
25622;DHT22;13487;39.360;22.962;2022-12-20T11:24:32;11.70;99.90
25622;DHT22;13487;39.360;22.962;2022-12-20T11:32:57;11.10;99.90
25622;DHT22;13487;39.360;22.962;2022-12-20T11:38:14;11.40;99.90
25622;DHT22;13487;39.360;22.962;2022-12-20T11:43:48;11.20;99.90
25622;DHT22;13487;39.360;22.962;2022-12-20T11:51:49;10.90;99.90
25622;DHT22;13487;39.360;22.962;2022-12-20T11:57:53;11.00;99.90
25622;DHT22;13487;39.360;22.962;2022-12-20T12:00:22;11.10;99.90
25622;DHT22;13487;39.360;22.962;2022-12-20T12:02:58;11.10;99.90
25622;DHT22;13487;39.360;22.962;2022-12-20T12:05:51;11.10;99.90
25622;DHT22;13487;39.360;22.962;2022-12-20T12:08:46;11.10;99.90
25622;DHT22;13487;39.360;22.962;2022-12-20T12:11:21;11.30;99.90
25622;DHT22;13487;39.360;22.962;2022-12-20T12:13:49;11.10;99.90
25622;DHT22;13487;39.360;22.962;2022-12-20T12:16:26;10.90;99.90
25622;DHT22;13487;39.360;22.962;2022-12-20T12:18:52;11.00;99.90
25622;DHT22;13487;39.360;22.962;2022-12-20T12:21:40;11.00;99.90
25622;DHT22;13487;39.360;22.962;2022-12-20T12:24:20;11.00;99.90
25622;DHT22;13487;39.360;22.962;2022-12-20T12:26:48;11.20;99.90
25622;DHT22;13487;39.360;22.962;2022-12-20T12:29:15;11.20;99.90
25622;DHT22;13487;39.360;22.962;2022-12-20T12:31:54;11.00;99.90
25622;DHT22;13487;39.360;22.962;2022-12-20T12:44:58;10.90;99.90
25622;DHT22;13487;39.360;22.962;2022-12-20T12:47:54;10.90;99.90
25622;DHT22;13487;39.360;22.962;2022-12-20T12:50:37;10.70;99.90
25622;DHT22;13487;39.360;22.962;2022-12-20T12:53:47;10.80;99.90
25622;DHT22;13487;39.360;22.962;2022-12-20T12:59:08;10.90;99.90
25622;DHT22;13487;39.360;22.962;2022-12-20T13:11:53;10.90;99.90
25622;DHT22;13487;39.360;22.962;2022-12-20T13:16:52;10.70;99.90
25622;DHT22;13487;39.360;22.962;2022-12-20T13:19:35;10.70;99.90
25622;DHT22;13487;39.360;22.962;2022-12-20T13:22:20;10.70;99.90
25622;DHT22;13487;39.360;22.962;2022-12-20T13:24:59;10.80;99.90
25622;DHT22;13487;39.360;22.962;2022-12-20T13:27:38;10.80;99.90
25622;DHT22;13487;39.360;22.962;2022-12-20T13:38:02;10.80;99.90
25622;DHT22;13487;39.360;22.962;2022-12-20T13:40:47;10.80;99.90
25622;DHT22;13487;39.360;22.962;2022-12-20T13:45:56;10.90;99.90
25622;DHT22;13487;39.360;22.962;2022-12-20T13:48:40;10.70;99.90
25622;DHT22;13487;39.360;22.962;2022-12-20T13:51:07;10.80;99.90
25622;DHT22;13487;39.360;22.962;2022-12-20T13:53:33;10.70;99.90
25622;DHT22;13487;39.360;22.962;2022-12-20T13:59:26;10.60;99.90
25622;DHT22;13487;39.360;22.962;2022-12-20T14:01:53;10.80;99.90
25622;DHT22;13487;39.360;22.962;2022-12-20T14:04:20;10.90;99.90
25622;DHT22;13487;39.360;22.962;2022-12-20T14:06:57;10.90;99.90
25622;DHT22;13487;39.360;22.962;2022-12-20T14:09:30;10.70;99.90
25622;DHT22;13487;39.360;22.962;2022-12-20T14:12:17;10.70;99.90
25622;DHT22;13487;39.360;22.962;2022-12-20T14:14:44;10.60;99.90
25622;DHT22;13487;39.360;22.962;2022-12-20T14:17:30;10.80;99.90
25622;DHT22;13487;39.360;22.962;2022-12-20T14:23:13;10.60;99.90
25622;DHT22;13487;39.360;22.962;2022-12-20T14:25:55;10.50;99.90
25622;DHT22;13487;39.360;22.962;2022-12-20T14:28:39;10.40;99.90
25622;DHT22;13487;39.360;22.962;2022-12-20T14:31:24;10.40;99.90
25622;DHT22;13487;39.360;22.962;2022-12-20T14:33:59;10.30;99.90
25622;DHT22;13487;39.360;22.962;2022-12-20T14:36:26;10.10;99.90
25622;DHT22;13487;39.360;22.962;2022-12-20T14:38:52;10.20;99.90
25622;DHT22;13487;39.360;22.962;2022-12-20T14:41:33;10.30;99.90
25622;DHT22;13487;39.360;22.962;2022-12-20T14:44:15;10.30;99.90
25622;DHT22;13487;39.360;22.962;2022-12-20T14:46:58;10.30;99.90
25622;DHT22;13487;39.360;22.962;2022-12-20T14:49:35;10.20;99.90
25622;DHT22;13487;39.360;22.962;2022-12-20T14:52:15;10.20;99.90
25622;DHT22;13487;39.360;22.962;2022-12-20T14:54:58;10.10;99.90
25622;DHT22;13487;39.360;22.962;2022-12-20T14:57:38;10.20;99.90
25622;DHT22;13487;39.360;22.962;2022-12-20T15:02:48;10.10;99.90
25622;DHT22;13487;39.360;22.962;2022-12-20T15:08:18;10.10;99.90
25622;DHT22;13487;39.360;22.962;2022-12-20T15:13:29;9.90;99.90
25622;DHT22;13487;39.360;22.962;2022-12-20T15:15:58;9.80;99.90
25622;DHT22;13487;39.360;22.962;2022-12-20T15:18:24;9.80;99.90
25622;DHT22;13487;39.360;22.962;2022-12-20T15:21:12;9.80;99.90
25622;DHT22;13487;39.360;22.962;2022-12-20T15:23:47;9.90;99.90
25622;DHT22;13487;39.360;22.962;2022-12-20T15:26:20;9.80;99.90
25622;DHT22;13487;39.360;22.962;2022-12-20T15:28:46;9.90;99.90
25622;DHT22;13487;39.360;22.962;2022-12-20T15:31:14;9.80;99.90
25622;DHT22;13487;39.360;22.962;2022-12-20T15:33:42;9.80;99.90
25622;DHT22;13487;39.360;22.962;2022-12-20T15:36:15;9.80;99.90
25622;DHT22;13487;39.360;22.962;2022-12-20T15:38:41;9.90;1.00
25622;DHT22;13487;39.360;22.962;2022-12-20T15:41:20;9.90;1.00
25622;DHT22;13487;39.360;22.962;2022-12-20T15:43:47;9.70;1.00
25622;DHT22;13487;39.360;22.962;2022-12-20T15:46:15;9.80;1.00
25622;DHT22;13487;39.360;22.962;2022-12-20T15:48:40;9.80;1.00
25622;DHT22;13487;39.360;22.962;2022-12-20T15:51:17;9.80;1.00
25622;DHT22;13487;39.360;22.962;2022-12-20T15:53:46;9.70;99.90
25622;DHT22;13487;39.360;22.962;2022-12-20T15:56:16;9.70;99.90
25622;DHT22;13487;39.360;22.962;2022-12-20T15:58:43;9.60;99.90
25622;DHT22;13487;39.360;22.962;2022-12-20T16:01:11;9.70;1.00
25622;DHT22;13487;39.360;22.962;2022-12-20T16:03:38;9.60;1.00
25622;DHT22;13487;39.360;22.962;2022-12-20T16:06:04;9.50;1.00
25622;DHT22;13487;39.360;22.962;2022-12-20T16:08:29;9.60;1.00
25622;DHT22;13487;39.360;22.962;2022-12-20T16:10:55;9.60;1.00
25622;DHT22;13487;39.360;22.962;2022-12-20T16:13:23;9.50;1.00
25622;DHT22;13487;39.360;22.962;2022-12-20T16:15:50;9.60;1.00
25622;DHT22;13487;39.360;22.962;2022-12-20T16:18:17;9.60;1.00
25622;DHT22;13487;39.360;22.962;2022-12-20T16:20:43;9.60;1.00
25622;DHT22;13487;39.360;22.962;2022-12-20T16:23:19;9.60;1.00
25622;DHT22;13487;39.360;22.962;2022-12-20T16:25:47;9.70;1.00
25622;DHT22;13487;39.360;22.962;2022-12-20T16:28:13;9.60;1.00
25622;DHT22;13487;39.360;22.962;2022-12-20T16:30:39;9.50;1.00
25622;DHT22;13487;39.360;22.962;2022-12-20T16:33:05;9.50;1.00
25622;DHT22;13487;39.360;22.962;2022-12-20T16:35:35;9.60;1.00
25622;DHT22;13487;39.360;22.962;2022-12-20T16:38:02;9.70;99.90
25622;DHT22;13487;39.360;22.962;2022-12-20T16:40:30;9.80;99.90
25622;DHT22;13487;39.360;22.962;2022-12-20T16:42:57;9.80;99.90
25622;DHT22;13487;39.360;22.962;2022-12-20T16:45:30;9.80;99.90
25622;DHT22;13487;39.360;22.962;2022-12-20T16:47:56;9.80;99.90
25622;DHT22;13487;39.360;22.962;2022-12-20T16:50:24;9.90;99.90
25622;DHT22;13487;39.360;22.962;2022-12-20T16:52:51;9.90;99.90
25622;DHT22;13487;39.360;22.962;2022-12-20T16:55:22;9.90;99.90
25622;DHT22;13487;39.360;22.962;2022-12-20T16:57:49;9.80;1.00
25622;DHT22;13487;39.360;22.962;2022-12-20T17:00:23;9.70;1.00
25622;DHT22;13487;39.360;22.962;2022-12-20T17:02:50;9.70;1.00
25622;DHT22;13487;39.360;22.962;2022-12-20T17:05:26;9.60;1.00
25622;DHT22;13487;39.360;22.962;2022-12-20T17:07:52;9.50;1.00
25622;DHT22;13487;39.360;22.962;2022-12-20T17:10:18;9.50;1.00
25622;DHT22;13487;39.360;22.962;2022-12-20T17:12:45;9.50;1.00
25622;DHT22;13487;39.360;22.962;2022-12-20T17:15:25;9.40;1.00
25622;DHT22;13487;39.360;22.962;2022-12-20T17:17:52;9.50;1.00
25622;DHT22;13487;39.360;22.962;2022-12-20T17:20:19;9.50;1.00
25622;DHT22;13487;39.360;22.962;2022-12-20T17:22:51;9.50;1.00
25622;DHT22;13487;39.360;22.962;2022-12-20T17:25:30;9.50;1.00
25622;DHT22;13487;39.360;22.962;2022-12-20T17:27:57;9.60;1.00
25622;DHT22;13487;39.360;22.962;2022-12-20T17:30:24;9.60;1.00
25622;DHT22;13487;39.360;22.962;2022-12-20T17:32:51;9.50;1.00
25622;DHT22;13487;39.360;22.962;2022-12-20T17:35:18;9.40;1.00
25622;DHT22;13487;39.360;22.962;2022-12-20T17:37:46;9.50;1.00
25622;DHT22;13487;39.360;22.962;2022-12-20T17:40:13;9.50;1.00
25622;DHT22;13487;39.360;22.962;2022-12-20T17:42:40;9.50;1.00
25622;DHT22;13487;39.360;22.962;2022-12-20T17:45:28;9.40;1.00